San Diego, California
Traffic Map
Current Weather Conditions
San Diego, California
Scattered Clouds
Scattered Clouds
21°
Feels Like: 21°
Wind Chill: 21° Ceiling: Unl
Heat Index: 21° Visibility: 10mi
Dew Point: 11° Wind: 12mph
Humidity: 53% Direction: 220° (SW)
Pressure: 29.99in Gusts: 0mph
Raw Report DataKSAN 241951Z 22010KT 10SM SCT250 21/11 A2999 RMK AO2 SLP155 T02060106
Traffic Incident Summary
Active as of:
Severity:
Category:
InformationThere was an issue retrieving the traffic information for this location. Please try a different location or try again shortly.
Advertisements
At Last! Intellicast now available for iPhone and Android